Time;durP1;ratioP1;P1;durP2;ratioP2;P2;SDS_P1;SDS_P2;PMS_P1;PMS_P2;Temp;Humidity;BMP_temperature;BMP_pressure;BME280_temperature;BME280_humidity;BME280_pressure;Samples;Min_cycle;Max_cycle;Signal;HPM_P1;HPM_P2
2022/03/16 00:04:44;;;;;;;46.70;31.40;;;;;;;6.72;67.52;100439.51;214790;1274;140601;-78
2022/03/16 00:09:49;;;;;;;39.00;24.00;;;;;;;6.70;67.60;100433.59;214753;1273;140050;-78
2022/03/16 00:14:53;;;;;;;38.10;27.50;;;;;;;6.69;67.09;100420.57;214693;1274;140809;-67
2022/03/16 00:19:58;;;;;;;48.20;31.80;;;;;;;6.72;67.08;100411.98;215141;1273;141358;-77
2022/03/16 00:25:04;;;;;;;54.40;32.50;;;;;;;6.71;67.04;100407.41;214405;1273;141228;-74
2022/03/16 00:30:11;;;;;;;44.50;30.40;;;;;;;6.66;67.04;100415.54;213923;1274;141989;-74
2022/03/16 00:35:15;;;;;;;74.00;46.10;;;;;;;6.62;67.02;100420.48;213796;1273;140694;-72
2022/03/16 00:40:19;;;;;;;41.40;27.20;;;;;;;6.58;67.43;100413.50;214590;1272;140964;-74
2022/03/16 00:45:24;;;;;;;47.20;29.40;;;;;;;6.54;67.21;100408.16;214026;1273;232917;-73
2022/03/16 00:50:28;;;;;;;40.20;25.70;;;;;;;6.48;67.19;100395.09;213282;1273;143551;-74
2022/03/16 00:55:32;;;;;;;45.20;26.90;;;;;;;6.42;67.11;100391.54;213628;1273;142329;-70
2022/03/16 01:00:35;;;;;;;38.20;23.30;;;;;;;6.39;67.25;100391.12;214756;1273;142104;-72
2022/03/16 01:05:39;;;;;;;44.10;26.50;;;;;;;6.32;67.42;100387.71;214821;1272;139560;-69
2022/03/16 01:10:43;;;;;;;52.00;31.30;;;;;;;6.25;67.22;100393.19;214067;1273;139641;-72
2022/03/16 01:15:48;;;;;;;58.30;35.40;;;;;;;6.23;67.43;100395.70;214168;1274;140560;-71
2022/03/16 01:20:52;;;;;;;50.10;32.90;;;;;;;6.21;67.34;100391.36;214099;1274;141689;-72
2022/03/16 01:25:56;;;;;;;50.90;32.30;;;;;;;6.22;67.33;100384.57;215492;1274;141167;-73
2022/03/16 01:31:01;;;;;;;44.10;27.30;;;;;;;6.23;67.69;100385.35;215616;1274;141747;-73
2022/03/16 01:36:06;;;;;;;36.20;23.50;;;;;;;6.22;67.20;100379.92;216151;1274;140641;-75
2022/03/16 01:41:10;;;;;;;36.60;23.90;;;;;;;6.22;67.20;100383.91;215608;1274;141722;-76
2022/03/16 01:46:14;;;;;;;36.60;25.60;;;;;;;6.22;67.60;100382.45;216057;1274;151627;-72
2022/03/16 01:51:21;;;;;;;39.10;24.90;;;;;;;6.23;67.26;100392.55;215893;1274;141253;-72
2022/03/16 01:56:26;;;;;;;32.60;23.30;;;;;;;6.26;66.93;100382.36;215770;1274;140474;-71
2022/03/16 02:01:31;;;;;;;34.60;21.40;;;;;;;6.27;67.22;100380.09;215375;1274;140256;-69
2022/03/16 02:06:35;;;;;;;32.50;22.60;;;;;;;6.26;67.20;100379.27;214408;1274;140624;-67
2022/03/16 02:11:41;;;;;;;38.30;24.50;;;;;;;6.21;67.17;100382.77;214651;1274;140253;-70
2022/03/16 02:16:46;;;;;;;41.10;25.30;;;;;;;6.13;67.05;100379.23;214818;1274;141775;-71
2022/03/16 02:21:59;;;;;;;35.50;25.30;;;;;;;6.03;67.13;100377.04;213438;1275;145649;-67
2022/03/16 02:27:04;;;;;;;44.70;25.40;;;;;;;5.93;67.53;100381.97;213332;1274;141098;-69
2022/03/16 02:32:09;;;;;;;42.50;27.00;;;;;;;5.83;67.75;100380.91;213110;1274;830341;-74
2022/03/16 02:37:13;;;;;;;40.90;27.70;;;;;;;5.75;67.90;100377.34;213885;1274;140704;-75
2022/03/16 02:42:18;;;;;;;40.60;27.30;;;;;;;5.68;68.12;100381.57;213314;1274;140964;-75
2022/03/16 02:47:24;;;;;;;42.60;27.60;;;;;;;5.65;68.18;100380.48;213515;1274;142557;-75
2022/03/16 02:52:29;;;;;;;32.20;19.10;;;;;;;5.59;68.02;100383.46;213475;1274;142195;-71
2022/03/16 02:57:34;;;;;;;39.50;25.10;;;;;;;5.48;68.40;100389.52;214222;1274;140448;-75
2022/03/16 03:02:41;;;;;;;36.00;24.80;;;;;;;5.41;68.60;100391.19;214570;1274;141123;-74
2022/03/16 03:07:46;;;;;;;40.60;25.60;;;;;;;5.37;68.62;100395.02;213800;1274;140733;-73
2022/03/16 03:12:50;;;;;;;44.10;29.30;;;;;;;5.38;68.59;100395.46;214149;1274;142363;-74
2022/03/16 03:17:55;;;;;;;41.20;25.80;;;;;;;5.39;68.64;100398.08;213757;1274;141389;-68
2022/03/16 03:23:00;;;;;;;40.90;25.70;;;;;;;5.40;68.68;100410.38;215269;1274;142239;-72
2022/03/16 03:28:04;;;;;;;42.20;28.60;;;;;;;5.41;68.72;100417.10;214948;1274;139561;-74
2022/03/16 03:33:08;;;;;;;34.80;24.10;;;;;;;5.39;68.72;100423.27;215689;1274;140274;-74
2022/03/16 03:38:13;;;;;;;42.30;26.70;;;;;;;5.36;68.65;100427.27;215775;1274;139740;-73
2022/03/16 03:43:18;;;;;;;40.70;26.80;;;;;;;5.40;68.66;100426.53;216001;1274;140836;-72
2022/03/16 03:48:21;;;;;;;43.20;27.50;;;;;;;5.42;68.53;100426.34;216084;1274;153280;-70
2022/03/16 03:53:29;;;;;;;45.70;28.60;;;;;;;5.38;68.86;100433.17;215933;1274;143042;-72
2022/03/16 03:58:34;;;;;;;43.60;28.60;;;;;;;5.38;68.90;100443.73;216130;1274;140922;-73
2022/03/16 04:03:38;;;;;;;44.90;31.20;;;;;;;5.33;68.67;100439.08;215102;1274;140716;-73
2022/03/16 04:08:43;;;;;;;34.20;22.20;;;;;;;5.23;68.57;100444.96;214415;1274;140813;-80
2022/03/16 04:13:48;;;;;;;45.20;28.80;;;;;;;5.13;68.78;100447.08;214397;1274;165021;-79
2022/03/16 04:18:52;;;;;;;45.20;27.40;;;;;;;5.07;69.00;100452.34;213711;1274;141786;-71
2022/03/16 04:23:57;;;;;;;48.00;30.40;;;;;;;5.01;69.13;100454.29;213522;1274;141840;-72
2022/03/16 04:29:02;;;;;;;53.50;36.40;;;;;;;4.90;69.26;100445.71;214377;1274;143498;-70
2022/03/16 04:34:07;;;;;;;63.30;38.40;;;;;;;4.85;69.43;100445.27;213814;1274;140961;-71
2022/03/16 04:39:12;;;;;;;58.30;32.30;;;;;;;4.81;69.52;100447.14;213452;1275;141701;-70
2022/03/16 04:44:17;;;;;;;51.70;31.70;;;;;;;4.73;69.61;100456.35;213643;1274;141661;-71
2022/03/16 04:49:21;;;;;;;56.50;35.70;;;;;;;4.64;69.79;100467.78;213545;1274;142128;-70
2022/03/16 04:54:25;;;;;;;72.10;42.00;;;;;;;4.55;69.99;100471.01;213722;1274;141418;-69
2022/03/16 04:59:30;;;;;;;74.30;40.10;;;;;;;4.50;70.10;100475.18;214191;1274;141273;-74
2022/03/16 05:04:34;;;;;;;72.60;41.80;;;;;;;4.47;70.19;100483.45;214206;1274;223723;-70
2022/03/16 05:09:39;;;;;;;63.30;39.60;;;;;;;4.51;70.40;100484.54;213315;1274;141850;-70
2022/03/16 05:14:43;;;;;;;72.60;41.70;;;;;;;4.49;70.55;100483.98;214200;1274;141529;-69
2022/03/16 05:19:48;;;;;;;71.50;40.00;;;;;;;4.49;70.54;100488.48;214035;1274;142460;-77
2022/03/16 05:24:52;;;;;;;64.00;39.80;;;;;;;4.50;70.48;100492.23;215015;1274;139887;-73
2022/03/16 05:29:57;;;;;;;67.00;39.40;;;;;;;4.53;70.69;100502.09;214910;1274;140817;-73
2022/03/16 05:35:01;;;;;;;70.00;40.30;;;;;;;4.56;70.44;100504.51;215351;1274;141190;-68
2022/03/16 05:40:06;;;;;;;62.00;38.30;;;;;;;4.59;70.37;100513.64;214824;1274;140803;-72
2022/03/16 05:45:11;;;;;;;52.30;30.90;;;;;;;4.63;70.45;100515.12;214497;1273;140903;-77
2022/03/16 05:50:17;;;;;;;53.90;36.90;;;;;;;4.68;70.49;100521.72;214876;1274;140201;-75
2022/03/16 05:55:21;;;;;;;53.10;31.40;;;;;;;4.75;70.54;100525.20;215903;1274;139463;-67
2022/03/16 06:00:27;;;;;;;57.80;35.10;;;;;;;4.85;70.23;100532.25;216037;1274;140785;-73
2022/03/16 06:05:32;;;;;;;48.90;31.30;;;;;;;4.96;70.27;100538.68;214626;1274;141303;-77
2022/03/16 06:10:38;;;;;;;55.00;36.30;;;;;;;5.06;70.16;100547.23;216169;1274;140060;-72
2022/03/16 06:15:44;;;;;;;55.50;34.60;;;;;;;5.15;69.92;100551.39;214966;1274;141008;-70
2022/03/16 06:20:49;;;;;;;46.80;28.60;;;;;;;5.28;69.86;100558.21;215921;1274;140468;-71
2022/03/16 06:25:53;;;;;;;48.00;31.90;;;;;;;5.46;69.77;100563.00;214195;1274;139967;-75
2022/03/16 06:30:58;;;;;;;43.50;28.20;;;;;;;5.59;69.44;100567.94;213654;1274;139619;-75
2022/03/16 06:36:05;;;;;;;45.90;29.50;;;;;;;5.74;69.43;100573.86;214082;1274;142019;-70
2022/03/16 06:41:10;;;;;;;52.30;30.20;;;;;;;5.95;69.22;100582.05;213406;1274;140981;-75
2022/03/16 06:46:16;;;;;;;46.80;31.50;;;;;;;6.14;69.13;100586.44;213418;1274;141328;-74
2022/03/16 06:51:21;;;;;;;47.70;29.50;;;;;;;6.23;68.77;100588.10;214207;1274;142687;-74
2022/03/16 06:56:25;;;;;;;53.70;32.60;;;;;;;6.37;68.42;100595.45;213290;1274;140897;-70
2022/03/16 07:01:30;;;;;;;59.60;34.50;;;;;;;6.57;68.47;100595.45;214199;1274;140122;-66
2022/03/16 07:06:35;;;;;;;41.40;27.10;;;;;;;6.81;68.24;100600.06;213763;1273;141890;-69
2022/03/16 07:11:39;;;;;;;49.50;28.20;;;;;;;7.08;67.52;100602.31;213333;1273;141204;-72
2022/03/16 07:16:44;;;;;;;44.00;27.30;;;;;;;7.46;67.01;100611.83;214406;1273;140548;-74
2022/03/16 07:21:48;;;;;;;44.40;28.40;;;;;;;8.01;66.50;100617.48;215331;1273;140483;-79
2022/03/16 07:27:02;;;;;;;37.00;25.50;;;;;;;8.57;66.05;100623.55;214574;1273;140655;-79
2022/03/16 07:32:08;;;;;;;38.10;26.00;;;;;;;9.03;65.13;100627.45;214070;1273;141107;-71
2022/03/16 07:37:13;;;;;;;38.70;26.10;;;;;;;9.58;64.73;100633.73;215262;1274;231014;-73
2022/03/16 07:42:17;;;;;;;46.00;28.60;;;;;;;9.94;63.81;100633.59;214739;1273;141757;-74
2022/03/16 07:47:20;;;;;;;40.30;27.90;;;;;;;10.23;63.05;100641.81;214781;1273;141665;-72
2022/03/16 07:52:41;;;;;;;41.70;25.20;;;;;;;10.25;62.65;100648.79;214836;1273;142383;-78
2022/03/16 07:57:45;;;;;;;34.20;23.90;;;;;;;10.28;62.15;100651.45;214734;1274;142346;-73
2022/03/16 08:02:53;;;;;;;39.30;26.60;;;;;;;10.37;62.12;100656.29;215863;1274;140517;-75
2022/03/16 08:07:58;;;;;;;39.00;25.50;;;;;;;10.44;61.24;100657.73;216198;1272;140543;-76
2022/03/16 08:13:02;;;;;;;37.00;26.40;;;;;;;10.51;61.06;100662.99;216028;1274;141064;-71
2022/03/16 08:18:06;;;;;;;44.00;30.30;;;;;;;10.63;61.03;100665.86;214687;1274;143406;-77
2022/03/16 08:23:10;;;;;;;39.40;26.20;;;;;;;10.85;60.74;100664.10;213733;1274;140917;-74
2022/03/16 08:28:29;;;;;;;44.70;30.10;;;;;;;11.00;60.36;100662.16;214407;1274;140257;-78
2022/03/16 08:33:33;;;;;;;39.10;26.60;;;;;;;11.05;59.86;100664.41;215143;1274;141000;-73
2022/03/16 08:38:38;;;;;;;55.80;34.20;;;;;;;11.06;59.05;100666.11;214153;1273;140314;-75
2022/03/16 08:43:42;;;;;;;47.00;28.80;;;;;;;11.12;58.81;100661.75;214461;1274;140886;-73
2022/03/16 08:48:46;;;;;;;42.70;29.00;;;;;;;11.15;57.75;100656.61;214623;1274;141675;-75
2022/03/16 08:53:50;;;;;;;42.20;29.50;;;;;;;10.99;57.30;100666.31;212994;1272;140964;-73
2022/03/16 08:58:54;;;;;;;46.80;33.10;;;;;;;10.91;57.05;100675.15;213980;1274;141335;-79
2022/03/16 09:03:59;;;;;;;51.60;34.70;;;;;;;10.79;56.99;100677.75;213380;1273;141841;-74
2022/03/16 09:09:03;;;;;;;51.50;31.90;;;;;;;10.83;56.81;100689.06;213816;1273;141727;-71
2022/03/16 09:14:07;;;;;;;48.20;31.40;;;;;;;10.97;56.97;100688.74;214563;1273;142176;-73
2022/03/16 09:19:15;;;;;;;47.80;33.60;;;;;;;11.14;56.84;100690.27;214173;1274;141148;-79
2022/03/16 09:24:22;;;;;;;51.70;35.00;;;;;;;11.19;56.17;100694.02;213747;1273;140043;-74
2022/03/16 09:29:30;;;;;;;47.40;34.40;;;;;;;11.28;55.96;100695.69;214248;1274;140312;-79
2022/03/16 09:34:42;;;;;;;56.40;37.20;;;;;;;11.39;55.30;100698.56;214651;1273;140749;-79
2022/03/16 09:42:39;;;;;;;65.30;36.60;;;;;;;11.68;54.83;100701.09;213804;1315;636930;-78
2022/03/16 09:47:45;;;;;;;52.30;33.10;;;;;;;11.83;53.82;100705.61;212554;1279;140534;-70
2022/03/16 09:52:56;;;;;;;52.60;35.60;;;;;;;11.82;52.60;100707.42;215015;1277;370049;-77
2022/03/16 09:58:00;;;;;;;56.60;33.60;;;;;;;11.76;52.02;100710.11;215105;1277;139411;-78
2022/03/16 10:03:04;;;;;;;51.90;34.30;;;;;;;11.78;51.52;100712.95;214463;1277;139533;-80
2022/03/16 10:08:08;;;;;;;48.20;31.90;;;;;;;11.85;51.17;100720.75;215478;1277;140725;-76
2022/03/16 10:13:16;;;;;;;56.60;33.40;;;;;;;11.94;50.62;100727.48;215584;1277;140113;-78
2022/03/16 10:18:23;;;;;;;48.30;34.30;;;;;;;12.00;50.12;100729.56;215647;1277;139607;-80
2022/03/16 10:23:30;;;;;;;53.50;36.40;;;;;;;12.17;50.47;100731.55;215632;1277;139809;-79
2022/03/16 10:28:36;;;;;;;54.80;35.80;;;;;;;12.38;50.06;100739.48;214744;1277;139320;-73
2022/03/16 10:33:48;;;;;;;55.50;37.80;;;;;;;12.46;49.73;100744.67;213783;1277;139645;-80
2022/03/16 10:39:03;;;;;;;64.60;37.30;;;;;;;12.58;49.84;100755.58;213120;1279;143511;-79
2022/03/16 10:49:35;;;;;;;49.70;36.10;;;;;;;12.82;49.26;100765.81;213681;1278;140994;-73
2022/03/16 10:54:39;;;;;;;52.80;35.60;;;;;;;12.84;48.35;100773.73;213613;1279;140179;-73
2022/03/16 10:59:49;;;;;;;53.40;35.60;;;;;;;12.90;48.42;100769.45;212863;1278;140466;-79
2022/03/16 11:04:54;;;;;;;64.30;35.10;;;;;;;13.01;48.31;100772.83;213586;1279;140723;-81
2022/03/16 11:09:59;;;;;;;55.70;36.00;;;;;;;13.07;48.36;100777.61;213345;1279;140633;-77
2022/03/16 11:15:05;;;;;;;54.80;37.10;;;;;;;13.25;48.24;100769.90;213951;1278;139073;-78
2022/03/16 11:20:11;;;;;;;50.50;31.00;;;;;;;13.31;47.55;100773.93;213299;1279;141186;-71
2022/03/16 11:25:18;;;;;;;52.10;33.20;;;;;;;13.25;47.15;100777.42;213650;1279;139296;-81
2022/03/16 11:30:35;;;;;;;42.40;30.90;;;;;;;13.28;47.45;100776.16;213167;1279;139823;-81
2022/03/16 11:35:44;;;;;;;53.00;33.50;;;;;;;13.26;47.12;100782.64;213875;1279;140509;-79
2022/03/16 11:40:51;;;;;;;52.50;30.50;;;;;;;13.04;46.68;100780.89;213077;1279;139270;-81
2022/03/16 11:45:59;;;;;;;;;;;;;;;13.05;46.51;100776.73;213724;1279;140102;-83
2022/03/16 11:51:09;;;;;;;51.70;31.70;;;;;;;13.16;47.19;100780.70;215090;1279;125872;-82
2022/03/16 11:56:21;;;;;;;44.50;31.00;;;;;;;13.08;46.62;100779.40;213781;1279;139277;-74
2022/03/16 12:01:37;;;;;;;43.40;31.00;;;;;;;12.94;46.41;100773.97;214217;1279;139828;-80
2022/03/16 12:07:01;;;;;;;42.00;28.70;;;;;;;12.77;46.27;100773.11;215387;1279;139689;-81
2022/03/16 12:17:56;;;;;;;39.60;29.90;;;;;;;13.07;46.24;100771.67;215425;1278;139835;-79
2022/03/16 12:23:10;;;;;;;42.70;29.30;;;;;;;13.19;46.26;100772.31;214192;1279;140656;-81
2022/03/16 12:33:57;;;;;;;40.40;27.70;;;;;;;12.86;46.41;100788.03;214686;1279;139380;-80
2022/03/16 12:39:08;;;;;;;36.80;27.60;;;;;;;12.92;46.47;100788.45;214317;1278;140026;-80
2022/03/16 12:44:16;;;;;;;47.40;31.30;;;;;;;13.10;46.39;100791.23;214967;1278;140271;-78
2022/03/16 12:49:22;;;;;;;38.10;29.00;;;;;;;13.30;46.31;100791.05;214054;1279;140470;-79
2022/03/16 12:54:29;;;;;;;;;;;;;;;13.31;45.77;100793.23;213826;1279;139758;-76
2022/03/16 12:59:44;;;;;;;38.50;23.60;;;;;;;13.27;45.92;100792.89;214629;1279;125549;-72
2022/03/16 13:04:52;;;;;;;46.50;31.50;;;;;;;13.27;45.81;100794.23;213775;1278;139735;-79
2022/03/16 13:10:00;;;;;;;35.30;26.00;;;;;;;13.17;45.46;100792.08;214266;1279;139895;-80
2022/03/16 13:15:05;;;;;;;35.00;25.10;;;;;;;13.08;45.56;100794.48;213953;1279;139671;-81
2022/03/16 13:20:23;;;;;;;61.30;36.80;;;;;;;13.06;45.68;100798.34;213208;1279;140969;-75
2022/03/16 13:25:29;;;;;;;46.90;30.00;;;;;;;13.02;45.60;100793.56;212982;1279;141074;-78
2022/03/16 13:30:33;;;;;;;31.50;23.70;;;;;;;12.94;45.70;100801.59;214256;1278;140370;-80
2022/03/16 13:35:38;;;;;;;33.40;22.30;;;;;;;12.90;46.02;100803.61;213925;1278;141931;-80
2022/03/16 13:40:45;;;;;;;43.60;29.00;;;;;;;12.83;45.37;100807.37;213812;1279;140926;-79
2022/03/16 13:45:53;;;;;;;38.80;28.90;;;;;;;12.87;46.03;100815.75;213901;1279;141957;-81
2022/03/16 13:50:58;;;;;;;46.70;30.60;;;;;;;12.75;46.15;100816.68;213953;1279;140187;-80
2022/03/16 13:56:13;;;;;;;39.10;26.60;;;;;;;12.68;46.19;100818.58;214043;1279;140142;-79
2022/03/16 14:01:21;;;;;;;48.20;30.20;;;;;;;12.48;46.34;100824.34;213811;1279;141018;-78
2022/03/16 14:06:36;;;;;;;55.60;30.50;;;;;;;12.39;46.73;100831.19;213740;1279;140914;-80
2022/03/16 14:11:46;;;;;;;46.70;29.90;;;;;;;12.30;46.73;100835.18;214850;1279;140861;-80
2022/03/16 14:16:54;;;;;;;42.10;28.90;;;;;;;12.23;47.01;100840.08;213918;1279;140833;-74
2022/03/16 14:22:00;;;;;;;40.40;26.30;;;;;;;12.20;46.87;100844.52;213463;1278;159612;-77
2022/03/16 14:27:18;;;;;;;42.70;29.90;;;;;;;12.15;46.91;100849.55;214990;1279;141186;-80
2022/03/16 14:32:25;;;;;;;39.50;28.00;;;;;;;12.20;47.47;100857.05;214850;1279;141857;-79
2022/03/16 14:37:29;;;;;;;45.40;30.00;;;;;;;12.25;47.16;100863.02;213394;1278;160845;-78
2022/03/16 14:42:32;;;;;;;38.70;26.10;;;;;;;12.14;47.10;100866.09;214705;1279;140732;-82
2022/03/16 14:47:37;;;;;;;44.90;32.30;;;;;;;12.05;47.40;100872.80;214237;1278;143492;-80
2022/03/16 14:52:43;;;;;;;43.00;30.20;;;;;;;12.00;47.35;100878.14;213642;1279;140952;-77
2022/03/16 14:57:51;;;;;;;41.90;29.70;;;;;;;11.92;47.53;100871.70;213818;1279;162974;-81
2022/03/16 15:02:55;;;;;;;;;;;;;;;11.83;47.56;100873.49;213518;1279;140532;-71
2022/03/16 15:08:00;;;;;;;41.70;27.60;;;;;;;11.71;47.84;100876.48;214476;1278;126876;-81
2022/03/16 15:13:05;;;;;;;40.60;27.90;;;;;;;11.61;47.88;100876.34;213829;1279;205987;-80
2022/03/16 15:18:10;;;;;;;50.00;31.90;;;;;;;11.50;47.97;100881.73;213903;1279;142706;-80
2022/03/16 15:23:15;;;;;;;49.50;34.40;;;;;;;11.45;48.35;100889.08;212979;1279;141051;-79
2022/03/16 15:28:21;;;;;;;42.10;28.70;;;;;;;11.37;48.43;100890.86;213611;1279;140387;-81
2022/03/16 15:33:27;;;;;;;43.10;30.90;;;;;;;11.31;49.06;100901.70;212890;1279;140049;-74
2022/03/16 15:38:33;;;;;;;43.40;30.40;;;;;;;11.26;49.17;100906.20;213754;1279;141012;-80
2022/03/16 15:43:37;;;;;;;44.40;29.40;;;;;;;11.16;49.08;100910.33;214493;1277;140654;-81
2022/03/16 15:48:42;;;;;;;35.90;24.90;;;;;;;11.06;49.49;100917.08;213257;1279;140324;-77
2022/03/16 15:53:50;;;;;;;39.30;28.00;;;;;;;10.94;49.22;100919.79;213441;1279;139640;-79
2022/03/16 15:58:55;;;;;;;40.60;25.60;;;;;;;10.83;49.39;100924.93;214505;1279;140024;-75
2022/03/16 16:03:59;;;;;;;43.60;28.10;;;;;;;10.70;49.69;100931.95;214280;1277;139996;-72
2022/03/16 16:09:04;;;;;;;49.00;28.50;;;;;;;10.57;49.56;100939.14;213486;1277;139644;-77
2022/03/16 16:14:09;;;;;;;35.80;27.40;;;;;;;10.41;49.86;100943.80;215289;1277;139718;-76
2022/03/16 16:19:14;;;;;;;40.50;28.20;;;;;;;10.26;50.01;100948.02;214589;1278;139562;-77
2022/03/16 16:24:19;;;;;;;43.90;27.10;;;;;;;10.13;50.19;100947.35;215291;1277;139779;-74
2022/03/16 16:29:27;;;;;;;41.30;28.00;;;;;;;9.99;50.29;100949.65;215526;1278;139952;-75
2022/03/16 16:34:32;;;;;;;38.90;26.10;;;;;;;9.85;50.52;100953.55;215298;1277;228597;-76
2022/03/16 16:39:39;;;;;;;41.30;28.80;;;;;;;9.72;50.64;100963.02;214415;1277;140320;-75
2022/03/16 16:44:44;;;;;;;39.40;26.10;;;;;;;9.56;50.95;100964.66;214849;1278;140944;-76
2022/03/16 16:49:51;;;;;;;42.50;28.30;;;;;;;9.39;51.12;100962.26;214827;1277;140712;-79
2022/03/16 16:54:59;;;;;;;40.80;27.80;;;;;;;9.20;51.20;100968.61;214213;1277;139549;-75
2022/03/16 17:00:08;;;;;;;45.60;28.00;;;;;;;9.03;51.44;100975.50;214020;1277;139500;-77
2022/03/16 17:05:16;;;;;;;44.40;28.30;;;;;;;8.88;51.30;100981.33;213169;1279;139897;-68
2022/03/16 17:10:27;;;;;;;41.90;25.20;;;;;;;8.73;51.89;100985.21;213885;1278;139188;-75
2022/03/16 17:15:46;;;;;;;48.20;30.50;;;;;;;8.57;52.00;100987.20;214954;1277;141263;-76
2022/03/16 17:20:55;;;;;;;59.30;32.20;;;;;;;8.44;52.19;100995.06;213269;1278;140156;-74
2022/03/16 17:26:04;;;;;;;50.50;31.30;;;;;;;8.31;52.12;100998.72;213528;1279;139266;-74
2022/03/16 17:31:12;;;;;;;62.30;32.90;;;;;;;8.18;52.60;101002.69;213267;1278;139419;-77
2022/03/16 17:36:17;;;;;;;55.90;34.40;;;;;;;8.02;52.61;101000.75;214165;1277;140189;-77
2022/03/16 17:46:47;;;;;;;72.50;34.40;;;;;;;7.65;53.03;101015.98;213107;1278;140417;-75
2022/03/16 17:51:52;;;;;;;56.60;32.90;;;;;;;7.47;53.83;101017.46;213074;1277;141942;-73
2022/03/16 17:56:56;;;;;;;59.10;33.00;;;;;;;7.31;53.46;101021.00;213961;1278;138990;-77
2022/03/16 18:02:01;;;;;;;55.20;32.50;;;;;;;7.17;53.84;101028.00;214474;1277;139696;-76
2022/03/16 18:07:06;;;;;;;62.10;34.40;;;;;;;7.01;53.98;101031.83;214314;1278;139811;-75
2022/03/16 18:17:34;;;;;;;55.90;33.50;;;;;;;6.64;55.03;101032.81;214259;1276;141352;-68
2022/03/16 18:22:38;;;;;;;51.10;31.60;;;;;;;6.42;55.01;101035.71;214099;1277;141425;-73
2022/03/16 18:27:43;;;;;;;51.80;33.80;;;;;;;6.23;55.47;101033.41;213957;1277;139122;-74
2022/03/16 18:32:48;;;;;;;50.70;33.20;;;;;;;6.06;55.93;101034.69;214047;1277;140635;-74
2022/03/16 18:37:52;;;;;;;50.60;31.40;;;;;;;5.92;56.59;101038.64;213852;1277;139535;-74
2022/03/16 18:42:57;;;;;;;56.00;33.30;;;;;;;5.77;56.67;101046.09;214750;1276;140110;-75
2022/03/16 18:48:07;;;;;;;56.40;35.10;;;;;;;5.62;57.03;101045.84;214827;1276;139123;-78
2022/03/16 18:53:14;;;;;;;52.30;34.00;;;;;;;5.49;57.42;101048.70;213872;1277;140033;-71
2022/03/16 18:58:21;;;;;;;42.60;30.00;;;;;;;5.31;57.64;101054.02;215103;1277;139415;-76
2022/03/16 19:03:25;;;;;;;49.30;33.40;;;;;;;5.14;57.84;101058.15;215023;1278;140089;-73
2022/03/16 19:08:30;;;;;;;44.70;29.30;;;;;;;5.00;58.21;101059.22;213197;1277;139460;-75
2022/03/16 19:13:47;;;;;;;53.30;31.00;;;;;;;4.82;58.55;101071.02;215106;1277;140038;-76
2022/03/16 19:18:56;;;;;;;55.70;29.70;;;;;;;4.64;58.84;101077.54;214222;1278;140915;-76
2022/03/16 19:24:01;;;;;;;44.40;29.00;;;;;;;4.46;59.09;101085.44;213287;1278;140172;-76
2022/03/16 19:29:06;;;;;;;48.90;29.70;;;;;;;4.29;59.09;101090.08;213480;1277;140610;-75
2022/03/16 19:34:14;;;;;;;52.50;32.10;;;;;;;4.13;59.55;101095.81;214003;1277;139757;-74
2022/03/16 19:39:19;;;;;;;58.30;34.50;;;;;;;3.98;59.82;101098.25;213368;1277;139427;-74
2022/03/16 19:44:24;;;;;;;63.80;34.30;;;;;;;3.85;60.12;101103.34;213948;1277;139295;-75
2022/03/16 19:49:28;;;;;;;58.40;32.00;;;;;;;3.68;60.30;101107.64;214000;1278;139905;-73
2022/03/16 19:54:33;;;;;;;61.40;37.40;;;;;;;3.53;60.41;101105.73;212982;1277;139659;-74
2022/03/16 19:59:40;;;;;;;46.20;30.90;;;;;;;3.39;60.74;101109.56;214064;1277;139392;-75
2022/03/16 20:04:50;;;;;;;54.10;33.30;;;;;;;3.27;61.32;101109.23;213851;1277;141126;-69
2022/03/16 20:09:57;;;;;;;73.30;41.60;;;;;;;3.22;61.86;101119.00;213545;1278;140000;-71
2022/03/16 20:15:03;;;;;;;62.70;40.00;;;;;;;3.19;62.09;101123.74;213577;1278;139840;-72
2022/03/16 20:20:11;;;;;;;62.10;37.80;;;;;;;3.16;62.33;101125.92;213559;1277;140960;-71
2022/03/16 20:25:17;;;;;;;54.60;33.50;;;;;;;3.17;62.65;101133.27;212804;1278;140771;-70
2022/03/16 20:30:22;;;;;;;57.90;33.90;;;;;;;3.10;62.31;101140.14;213035;1277;141721;-75
2022/03/16 20:35:31;;;;;;;58.70;34.00;;;;;;;2.94;62.78;101146.10;215056;1277;139077;-75
2022/03/16 20:40:41;;;;;;;56.60;35.30;;;;;;;2.88;63.02;101150.52;215047;1277;140947;-74
2022/03/16 20:45:46;;;;;;;55.80;37.40;;;;;;;2.77;63.28;101154.78;213966;1278;141472;-73
2022/03/16 20:50:53;;;;;;;62.90;37.40;;;;;;;2.68;63.63;101161.79;215563;1278;141178;-74
2022/03/16 20:56:01;;;;;;;59.10;34.30;;;;;;;2.65;63.65;101167.11;215685;1278;152863;-74
2022/03/16 21:01:10;;;;;;;57.70;37.00;;;;;;;2.58;63.57;101169.90;215425;1277;142444;-76
2022/03/16 21:06:15;;;;;;;61.20;34.50;;;;;;;2.49;63.81;101175.55;214049;1278;140830;-69
2022/03/16 21:11:20;;;;;;;68.40;41.10;;;;;;;2.37;64.10;101175.98;214226;1278;139729;-78
2022/03/16 21:16:25;;;;;;;58.70;35.90;;;;;;;2.30;64.31;101175.92;214305;1277;140339;-72
2022/03/16 21:21:30;;;;;;;66.80;37.70;;;;;;;2.21;64.49;101176.85;214590;1278;140809;-70
2022/03/16 21:26:35;;;;;;;74.90;37.30;;;;;;;2.11;64.81;101181.27;213204;1277;140123;-65
2022/03/16 21:31:40;;;;;;;71.80;41.70;;;;;;;2.08;64.95;101179.36;213770;1277;140564;-76
2022/03/16 21:36:48;;;;;;;70.70;42.90;;;;;;;2.07;65.39;101182.08;212606;1278;140262;-69
2022/03/16 21:47:18;;;;;;;70.40;40.20;;;;;;;1.86;65.52;101178.06;214080;1278;141202;-72
2022/03/16 21:52:23;;;;;;;58.30;40.40;;;;;;;1.72;65.90;101177.09;213871;1278;139674;-74
2022/03/16 21:57:28;;;;;;;76.90;46.10;;;;;;;1.56;65.88;101186.92;212292;1277;635249;-69
2022/03/16 22:02:33;;;;;;;68.20;42.40;;;;;;;1.49;66.50;101192.73;213697;1278;139081;-71
2022/03/16 22:07:38;;;;;;;75.60;44.10;;;;;;;1.43;66.35;101197.67;213460;1277;139541;-71
2022/03/16 22:12:47;;;;;;;93.40;49.10;;;;;;;1.36;66.71;101208.62;213200;1275;139473;-69
2022/03/16 22:17:53;;;;;;;73.40;41.50;;;;;;;1.30;66.57;101216.83;213942;1276;140904;-66
2022/03/16 22:22:58;;;;;;;90.40;46.90;;;;;;;1.18;67.02;101223.43;213332;1274;140747;-70
2022/03/16 22:28:03;;;;;;;91.20;51.20;;;;;;;1.12;66.99;101228.73;214250;1275;139725;-69
2022/03/16 22:33:08;;;;;;;92.60;47.60;;;;;;;1.10;67.71;101234.50;214874;1275;141066;-74
2022/03/16 22:38:13;;;;;;;94.10;51.40;;;;;;;1.09;67.56;101243.35;214212;1275;140406;-73
2022/03/16 22:43:17;;;;;;;93.80;56.70;;;;;;;1.05;67.64;101248.20;213791;1274;140681;-71
2022/03/16 22:48:24;;;;;;;81.10;51.20;;;;;;;1.02;67.63;101249.52;215460;1276;139474;-70
2022/03/16 22:53:28;;;;;;;88.00;48.10;;;;;;;0.94;67.64;101245.36;216248;1275;139995;-73
2022/03/16 22:58:35;;;;;;;89.10;52.30;;;;;;;0.83;67.58;101246.98;215968;1275;140458;-72
2022/03/16 23:03:39;;;;;;;71.40;42.50;;;;;;;0.73;67.79;101250.67;216042;1275;141067;-71
2022/03/16 23:08:44;;;;;;;89.10;46.30;;;;;;;0.60;68.13;101253.04;215278;1275;141190;-70
2022/03/16 23:13:48;;;;;;;97.70;49.00;;;;;;;0.52;68.22;101254.63;215664;1276;140934;-70
2022/03/16 23:18:52;;;;;;;95.90;48.50;;;;;;;0.52;68.27;101258.30;214531;1275;140620;-66
2022/03/16 23:23:57;;;;;;;97.00;55.10;;;;;;;0.53;68.59;101262.42;215276;1274;141123;-70
2022/03/16 23:29:03;;;;;;;104.80;56.10;;;;;;;0.53;69.19;101261.17;213448;1275;140636;-68